Time,TemperatureF,DewpointF,PressureIn,WindDirection,WindDirectionDegrees,WindSpeedMPH,WindSpeedGustMPH,Humidity,HourlyPrecipIn,Conditions,Clouds,dailyrainin,SoftwareType,DateUTC
2013-02-10 00:00:00,35.1,31.6,30.02,South,171,0.0,-999.0,87,0.00,,,0.01,Wunderground v.1.15,2013-02-10 08:00:00,
2013-02-10 00:10:00,35.1,31.9,30.02,SSE,168,0.0,-999.0,88,0.00,,,0.00,Wunderground v.1.15,2013-02-10 08:10:00,
2013-02-10 00:19:00,35.1,31.6,30.01,SE,146,0.0,-999.0,87,0.00,,,0.00,Wunderground v.1.15,2013-02-10 08:19:00,
2013-02-10 00:30:00,34.6,31.1,30.01,SSE,159,1.0,-999.0,87,0.00,,,0.00,Wunderground v.1.15,2013-02-10 08:30:00,
2013-02-10 00:40:00,34.2,30.7,30.01,SW,235,0.0,-999.0,87,0.00,,,0.00,Wunderground v.1.15,2013-02-10 08:40:00,
2013-02-10 00:49:00,34.2,30.7,30.01,SW,235,0.0,-999.0,87,0.00,,,0.00,Wunderground v.1.15,2013-02-10 08:49:00,
2013-02-10 01:00:00,34.1,30.6,30.01,SW,234,0.0,-999.0,87,0.00,,,0.00,Wunderground v.1.15,2013-02-10 09:00:00,
2013-02-10 01:10:00,33.6,30.1,30.01,SW,234,0.0,-999.0,87,0.00,,,0.00,Wunderground v.1.15,2013-02-10 09:10:00,
2013-02-10 01:19:00,33.5,30.3,30.00,SW,227,0.0,-999.0,88,0.00,,,0.00,Wunderground v.1.15,2013-02-10 09:19:00,
2013-02-10 01:30:00,33.5,30.3,30.00,SW,219,0.0,-999.0,88,0.00,,,0.00,Wunderground v.1.15,2013-02-10 09:30:00,
2013-02-10 01:40:00,32.9,29.7,30.01,South,174,0.0,-999.0,88,0.00,,,0.00,Wunderground v.1.15,2013-02-10 09:40:00,
2013-02-10 01:49:00,32.3,29.1,30.01,South,174,0.0,-999.0,88,0.00,,,0.00,Wunderground v.1.15,2013-02-10 09:49:00,
2013-02-10 02:00:00,32.4,29.5,30.00,South,173,0.0,-999.0,89,0.00,,,0.00,Wunderground v.1.15,2013-02-10 10:00:00,
2013-02-10 02:10:00,32.8,29.9,30.01,South,172,0.0,-999.0,89,0.00,,,0.00,Wunderground v.1.15,2013-02-10 10:10:00,
2013-02-10 02:19:00,32.4,29.2,30.01,South,172,0.0,-999.0,88,0.00,,,0.00,Wunderground v.1.15,2013-02-10 10:19:00,
2013-02-10 02:30:00,31.7,28.6,30.00,South,172,0.0,-999.0,88,0.00,,,0.00,Wunderground v.1.15,2013-02-10 10:30:00,
2013-02-10 02:39:00,31.6,29.0,30.00,South,169,0.0,-999.0,90,0.00,,,0.00,Wunderground v.1.15,2013-02-10 10:39:00,
2013-02-10 02:49:00,32.4,29.8,30.00,South,169,0.0,-999.0,90,0.00,,,0.00,Wunderground v.1.15,2013-02-10 10:49:00,
2013-02-10 03:00:00,32.3,29.4,30.00,SSE,160,1.0,-999.0,89,0.00,,,0.00,Wunderground v.1.15,2013-02-10 11:00:00,
2013-02-10 03:09:00,32.3,29.4,30.00,South,175,0.0,-999.0,89,0.00,,,0.00,Wunderground v.1.15,2013-02-10 11:09:00,
2013-02-10 03:19:00,31.9,29.0,30.00,South,170,0.0,-999.0,89,0.00,,,0.00,Wunderground v.1.15,2013-02-10 11:19:00,
2013-02-10 03:30:00,31.6,28.7,30.00,South,174,0.0,-999.0,89,0.00,,,0.00,Wunderground v.1.15,2013-02-10 11:30:00,
2013-02-10 03:39:00,31.2,28.3,29.99,SE,134,0.0,-999.0,89,0.00,,,0.00,Wunderground v.1.15,2013-02-10 11:39:00,
2013-02-10 03:50:00,30.7,28.1,29.99,ESE,121,0.0,-999.0,90,0.00,,,0.00,Wunderground v.1.15,2013-02-10 11:50:00,
2013-02-10 04:00:00,30.5,27.9,30.00,SE,132,0.0,-999.0,90,0.00,,,0.00,Wunderground v.1.15,2013-02-10 12:00:00,
2013-02-10 04:09:00,30.5,27.9,29.99,SE,140,0.0,-999.0,90,0.00,,,0.00,Wunderground v.1.15,2013-02-10 12:09:00,
2013-02-10 04:20:00,30.5,27.9,30.00,SE,142,0.0,-999.0,90,0.00,,,0.00,Wunderground v.1.15,2013-02-10 12:20:00,
2013-02-10 04:29:00,30.3,28.0,30.00,SSE,159,1.0,-999.0,91,0.00,,,0.00,Wunderground v.1.15,2013-02-10 12:29:00,
2013-02-10 04:39:00,29.8,27.2,30.00,SE,139,1.0,-999.0,90,0.00,,,0.00,Wunderground v.1.15,2013-02-10 12:39:00,
2013-02-10 04:50:00,29.4,26.8,30.00,SE,139,0.0,-999.0,90,0.00,,,0.00,Wunderground v.1.15,2013-02-10 12:50:00,
2013-02-10 05:00:00,29.3,27.0,30.00,SE,139,0.0,-999.0,91,0.00,,,0.00,Wunderground v.1.15,2013-02-10 13:00:00,
2013-02-10 05:09:00,29.6,27.6,30.00,SE,139,0.0,-999.0,92,0.00,,,0.00,Wunderground v.1.15,2013-02-10 13:09:00,
2013-02-10 05:19:00,29.7,27.7,30.00,SE,139,0.0,-999.0,92,0.00,,,0.00,Wunderground v.1.15,2013-02-10 13:19:00,
2013-02-10 05:29:00,29.7,27.4,30.00,SE,139,0.0,-999.0,91,0.00,,,0.00,Wunderground v.1.15,2013-02-10 13:29:00,
2013-02-10 05:39:00,29.8,27.5,30.00,SE,139,0.0,-999.0,91,0.00,,,0.00,Wunderground v.1.15,2013-02-10 13:39:00,
2013-02-10 05:49:00,29.9,27.9,30.00,SE,139,0.0,-999.0,92,0.00,,,0.00,Wunderground v.1.15,2013-02-10 13:49:00,
2013-02-10 06:00:00,29.9,27.6,30.01,SE,139,0.0,-999.0,91,0.00,,,0.00,Wunderground v.1.15,2013-02-10 14:00:00,
2013-02-10 06:09:00,29.7,27.4,30.01,SE,139,0.0,-999.0,91,0.00,,,0.00,Wunderground v.1.15,2013-02-10 14:09:00,
2013-02-10 06:19:00,29.4,27.1,30.01,SE,139,0.0,-999.0,91,0.00,,,0.00,Wunderground v.1.15,2013-02-10 14:19:00,
2013-02-10 06:29:00,28.8,26.5,30.01,SE,139,0.0,-999.0,91,0.00,,,0.00,Wunderground v.1.15,2013-02-10 14:29:00,
2013-02-10 06:40:00,28.5,26.2,30.02,SE,139,0.0,-999.0,91,0.00,,,0.00,Wunderground v.1.15,2013-02-10 14:40:00,
2013-02-10 06:49:00,28.4,26.4,30.02,SE,139,0.0,-999.0,92,0.00,,,0.00,Wunderground v.1.15,2013-02-10 14:49:00,
2013-02-10 07:00:00,28.3,26.3,30.01,SE,139,0.0,-999.0,92,0.00,,,0.00,Wunderground v.1.15,2013-02-10 15:00:00,
2013-02-10 07:09:00,28.4,26.4,30.02,SE,139,0.0,-999.0,92,0.00,,,0.00,Wunderground v.1.15,2013-02-10 15:09:00,
2013-02-10 07:19:00,28.6,26.6,30.02,SE,139,0.0,-999.0,92,0.00,,,0.00,Wunderground v.1.15,2013-02-10 15:19:00,
2013-02-10 07:29:00,29.4,27.4,30.02,SE,139,0.0,-999.0,92,0.00,,,0.00,Wunderground v.1.15,2013-02-10 15:29:00,
2013-02-10 07:39:00,30.1,27.8,30.02,SE,141,0.0,-999.0,91,0.00,,,0.00,Wunderground v.1.15,2013-02-10 15:39:00,
2013-02-10 07:49:00,30.8,28.5,30.02,SE,141,0.0,-999.0,91,0.00,,,0.00,Wunderground v.1.15,2013-02-10 15:49:00,
2013-02-10 07:59:00,32.2,29.6,30.02,SE,141,0.0,-999.0,90,0.00,,,0.00,Wunderground v.1.15,2013-02-10 15:59:00,
2013-02-10 08:09:00,32.6,29.7,30.02,SE,141,0.0,-999.0,89,0.00,,,0.00,Wunderground v.1.15,2013-02-10 16:09:00,
2013-02-10 08:19:00,33.2,30.0,30.02,SE,142,0.0,-999.0,88,0.00,,,0.00,Wunderground v.1.15,2013-02-10 16:19:00,
2013-02-10 08:29:00,33.6,30.1,30.02,SE,141,0.0,-999.0,87,0.00,,,0.00,Wunderground v.1.15,2013-02-10 16:29:00,
2013-02-10 08:40:00,34.6,31.1,30.02,SE,141,0.0,-999.0,87,0.00,,,0.00,Wunderground v.1.15,2013-02-10 16:40:00,
2013-02-10 08:49:00,35.1,31.3,30.02,SE,141,0.0,-999.0,86,0.00,,,0.00,Wunderground v.1.15,2013-02-10 16:49:00,
2013-02-10 08:59:00,35.7,31.9,30.03,SE,141,0.0,-999.0,86,0.00,,,0.00,Wunderground v.1.15,2013-02-10 16:59:00,
2013-02-10 09:09:00,36.7,32.6,30.02,SE,141,0.0,-999.0,85,0.00,,,0.00,Wunderground v.1.15,2013-02-10 17:09:00,
2013-02-10 09:19:00,37.7,33.3,30.02,SE,141,0.0,-999.0,84,0.00,,,0.00,Wunderground v.1.15,2013-02-10 17:19:00,
2013-02-10 09:29:00,38.2,33.5,30.02,SE,141,0.0,-999.0,83,0.00,,,0.00,Wunderground v.1.15,2013-02-10 17:29:00,
2013-02-10 09:39:00,38.7,33.7,30.02,SE,141,0.0,-999.0,82,0.00,,,0.00,Wunderground v.1.15,2013-02-10 17:39:00,
2013-02-10 09:49:00,39.3,34.0,30.02,SE,140,0.0,-999.0,81,0.00,,,0.00,Wunderground v.1.15,2013-02-10 17:49:00,
2013-02-10 09:59:00,40.5,35.4,30.02,SE,140,0.0,-999.0,82,0.00,,,0.00,Wunderground v.1.15,2013-02-10 17:59:00,
2013-02-10 10:09:00,41.6,35.9,30.02,SE,140,0.0,-999.0,80,0.00,,,0.00,Wunderground v.1.15,2013-02-10 18:09:00,
2013-02-10 10:19:00,42.8,36.4,30.01,East,96,0.0,-999.0,78,0.00,,,0.00,Wunderground v.1.15,2013-02-10 18:19:00,
2013-02-10 10:30:00,43.9,37.8,30.02,NNE,15,0.0,-999.0,79,0.00,,,0.00,Wunderground v.1.15,2013-02-10 18:30:00,
2013-02-10 10:39:00,44.4,37.3,30.01,North,360,0.0,-999.0,76,0.00,,,0.00,Wunderground v.1.15,2013-02-10 18:39:00,
2013-02-10 10:49:00,45.0,37.9,30.00,North,360,1.0,-999.0,76,0.00,,,0.00,Wunderground v.1.15,2013-02-10 18:49:00,
2013-02-10 10:59:00,46.5,39.3,30.00,North,360,0.0,-999.0,76,0.00,,,0.00,Wunderground v.1.15,2013-02-10 18:59:00,
2013-02-10 11:09:00,47.1,38.9,29.99,North,360,0.0,-999.0,73,0.00,,,0.00,Wunderground v.1.15,2013-02-10 19:09:00,
2013-02-10 11:19:00,47.6,39.0,29.99,North,355,0.0,-999.0,72,0.00,,,0.00,Wunderground v.1.15,2013-02-10 19:19:00,
2013-02-10 11:29:00,48.3,39.0,29.99,North,355,0.0,-999.0,70,0.00,,,0.00,Wunderground v.1.15,2013-02-10 19:29:00,
2013-02-10 11:39:00,49.3,39.6,29.98,East,94,1.0,-999.0,69,0.00,,,0.00,Wunderground v.1.15,2013-02-10 19:39:00,
2013-02-10 11:49:00,49.9,39.0,29.97,NE,47,1.0,-999.0,66,0.00,,,0.00,Wunderground v.1.15,2013-02-10 19:49:00,
2013-02-10 12:00:00,50.3,39.0,29.96,NE,47,0.0,-999.0,65,0.00,,,0.00,Wunderground v.1.15,2013-02-10 20:00:00,
2013-02-10 12:09:00,51.3,38.7,29.95,NE,47,0.0,-999.0,62,0.00,,,0.00,Wunderground v.1.15,2013-02-10 20:09:00,
2013-02-10 12:19:00,52.5,38.1,29.95,NNW,329,1.0,-999.0,58,0.00,,,0.00,Wunderground v.1.15,2013-02-10 20:19:00,
2013-02-10 12:29:00,51.9,36.7,29.94,ENE,67,1.0,-999.0,56,0.00,,,0.00,Wunderground v.1.15,2013-02-10 20:29:00,
2013-02-10 12:39:00,52.6,37.8,29.94,WNW,286,1.0,-999.0,57,0.00,,,0.00,Wunderground v.1.15,2013-02-10 20:39:00,
2013-02-10 12:49:00,53.3,38.4,29.93,NE,48,1.0,-999.0,57,0.00,,,0.00,Wunderground v.1.15,2013-02-10 20:49:00,
2013-02-10 12:59:00,54.4,38.6,29.93,NE,45,0.0,-999.0,55,0.00,,,0.00,Wunderground v.1.15,2013-02-10 20:59:00,
2013-02-10 13:09:00,54.7,37.4,29.93,NW,314,0.0,-999.0,52,0.00,,,0.00,Wunderground v.1.15,2013-02-10 21:09:00,
2013-02-10 13:19:00,54.2,37.4,29.92,East,82,1.0,-999.0,53,0.00,,,0.00,Wunderground v.1.15,2013-02-10 21:19:00,
2013-02-10 13:29:00,54.6,38.3,29.92,East,84,0.0,-999.0,54,0.00,,,0.00,Wunderground v.1.15,2013-02-10 21:29:00,
2013-02-10 13:39:00,54.6,37.3,29.92,East,98,1.0,-999.0,52,0.00,,,0.00,Wunderground v.1.15,2013-02-10 21:39:00,
2013-02-10 13:49:00,54.7,37.4,29.92,East,98,1.0,-999.0,52,0.00,,,0.00,Wunderground v.1.15,2013-02-10 21:49:00,
2013-02-10 14:00:00,54.8,38.0,29.92,East,98,0.0,-999.0,53,0.00,,,0.00,Wunderground v.1.15,2013-02-10 22:00:00,
2013-02-10 14:09:00,55.8,37.9,29.91,East,98,0.0,-999.0,51,0.00,,,0.00,Wunderground v.1.15,2013-02-10 22:09:00,
2013-02-10 14:19:00,56.2,38.3,29.91,NNE,24,0.0,-999.0,51,0.00,,,0.00,Wunderground v.1.15,2013-02-10 22:19:00,
2013-02-10 14:29:00,56.4,38.5,29.90,NNE,25,0.0,-999.0,51,0.00,,,0.00,Wunderground v.1.15,2013-02-10 22:29:00,
2013-02-10 14:39:00,56.2,38.8,29.90,ENE,66,0.0,-999.0,52,0.00,,,0.00,Wunderground v.1.15,2013-02-10 22:39:00,
2013-02-10 14:49:00,56.3,38.4,29.90,ENE,66,0.0,-999.0,51,0.00,,,0.00,Wunderground v.1.15,2013-02-10 22:49:00,
2013-02-10 15:00:00,56.3,38.4,29.90,ENE,65,0.0,-999.0,51,0.00,,,0.00,Wunderground v.1.15,2013-02-10 23:00:00,
2013-02-10 15:09:00,56.1,38.2,29.90,ENE,65,0.0,-999.0,51,0.00,,,0.00,Wunderground v.1.15,2013-02-10 23:09:00,
2013-02-10 15:19:00,55.5,39.6,29.90,ENE,65,0.0,-999.0,55,0.00,,,0.00,Wunderground v.1.15,2013-02-10 23:19:00,
2013-02-10 15:30:00,54.9,38.6,29.90,ENE,65,0.0,-999.0,54,0.00,,,0.00,Wunderground v.1.15,2013-02-10 23:30:00,
2013-02-10 15:39:00,54.7,38.4,29.90,ENE,65,0.0,-999.0,54,0.00,,,0.00,Wunderground v.1.15,2013-02-10 23:39:00,
2013-02-10 15:49:00,54.9,39.5,29.90,ENE,65,0.0,-999.0,56,0.00,,,0.00,Wunderground v.1.15,2013-02-10 23:49:00,
2013-02-10 16:00:00,55.3,38.9,29.90,ENE,65,0.0,-999.0,54,0.00,,,0.00,Wunderground v.1.15,2013-02-11 00:00:00,
2013-02-10 16:09:00,55.0,38.6,29.90,ENE,65,0.0,-999.0,54,0.00,,,0.00,Wunderground v.1.15,2013-02-11 00:09:00,
2013-02-10 16:19:00,54.7,38.4,29.89,ENE,65,0.0,-999.0,54,0.00,,,0.00,Wunderground v.1.15,2013-02-11 00:19:00,
2013-02-10 16:29:00,54.6,38.3,29.90,ENE,65,0.0,-999.0,54,0.00,,,0.00,Wunderground v.1.15,2013-02-11 00:29:00,
2013-02-10 16:39:00,54.1,38.3,29.89,ENE,65,0.0,-999.0,55,0.00,,,0.00,Wunderground v.1.15,2013-02-11 00:39:00,
2013-02-10 16:49:00,53.7,38.4,29.90,ENE,65,0.0,-999.0,56,0.00,,,0.00,Wunderground v.1.15,2013-02-11 00:49:00,
2013-02-10 16:59:00,53.3,38.0,29.90,ENE,65,0.0,-999.0,56,0.00,,,0.00,Wunderground v.1.15,2013-02-11 00:59:00,
2013-02-10 17:09:00,53.2,37.9,29.90,ENE,65,0.0,-999.0,56,0.00,,,0.00,Wunderground v.1.15,2013-02-11 01:09:00,
2013-02-10 17:19:00,53.1,38.3,29.90,ENE,65,0.0,-999.0,57,0.00,,,0.00,Wunderground v.1.15,2013-02-11 01:19:00,
2013-02-10 17:29:00,52.3,38.0,29.90,ENE,71,0.0,-999.0,58,0.00,,,0.00,Wunderground v.1.15,2013-02-11 01:29:00,
2013-02-10 17:39:00,52.0,40.2,29.91,ENE,62,0.0,-999.0,64,0.00,,,0.00,Wunderground v.1.15,2013-02-11 01:39:00,
2013-02-10 17:49:00,51.1,41.7,29.91,ENE,62,0.0,-999.0,70,0.00,,,0.00,Wunderground v.1.15,2013-02-11 01:49:00,
2013-02-10 18:00:00,50.1,39.2,29.91,ENE,62,0.0,-999.0,66,0.00,,,0.00,Wunderground v.1.15,2013-02-11 02:00:00,
2013-02-10 18:09:00,49.4,40.0,29.91,ENE,62,0.0,-999.0,70,0.00,,,0.00,Wunderground v.1.15,2013-02-11 02:09:00,
2013-02-10 18:19:00,49.1,39.0,29.92,ENE,62,0.0,-999.0,68,0.00,,,0.00,Wunderground v.1.15,2013-02-11 02:19:00,
2013-02-10 18:29:00,48.3,36.7,29.92,ENE,69,0.0,-999.0,64,0.00,,,0.00,Wunderground v.1.15,2013-02-11 02:29:00,
2013-02-10 18:39:00,47.9,36.3,29.92,ENE,69,0.0,-999.0,64,0.00,,,0.00,Wunderground v.1.15,2013-02-11 02:39:00,
2013-02-10 18:49:00,47.2,36.4,29.92,ENE,69,1.0,-999.0,66,0.00,,,0.00,Wunderground v.1.15,2013-02-11 02:49:00,
2013-02-10 19:00:00,46.8,37.5,29.92,ENE,69,0.0,-999.0,70,0.00,,,0.00,Wunderground v.1.15,2013-02-11 03:00:00,
2013-02-10 19:09:00,46.6,37.7,29.93,ENE,69,0.0,-999.0,71,0.00,,,0.00,Wunderground v.1.15,2013-02-11 03:09:00,
2013-02-10 19:19:00,45.8,36.6,29.93,ENE,69,0.0,-999.0,70,0.00,,,0.00,Wunderground v.1.15,2013-02-11 03:19:00,
2013-02-10 19:29:00,45.2,35.6,29.93,ENE,69,0.0,-999.0,69,0.00,,,0.00,Wunderground v.1.15,2013-02-11 03:29:00,
2013-02-10 19:39:00,44.8,35.6,29.93,ENE,69,0.0,-999.0,70,0.00,,,0.00,Wunderground v.1.15,2013-02-11 03:39:00,
2013-02-10 19:49:00,44.7,35.5,29.93,ENE,69,0.0,-999.0,70,0.00,,,0.00,Wunderground v.1.15,2013-02-11 03:49:00,
2013-02-10 19:59:00,44.1,35.3,29.93,ENE,69,0.0,-999.0,71,0.00,,,0.00,Wunderground v.1.15,2013-02-11 03:59:00,
2013-02-10 20:09:00,43.8,35.0,29.94,ENE,69,0.0,-999.0,71,0.00,,,0.00,Wunderground v.1.15,2013-02-11 04:09:00,
2013-02-10 20:19:00,42.8,34.4,29.94,ENE,69,0.0,-999.0,72,0.00,,,0.00,Wunderground v.1.15,2013-02-11 04:19:00,
2013-02-10 20:29:00,42.3,34.3,29.94,ENE,69,0.0,-999.0,73,0.00,,,0.00,Wunderground v.1.15,2013-02-11 04:29:00,
2013-02-10 20:39:00,41.8,34.1,29.94,ENE,69,0.0,-999.0,74,0.00,,,0.00,Wunderground v.1.15,2013-02-11 04:39:00,
2013-02-10 20:49:00,41.9,34.6,29.94,ENE,69,0.0,-999.0,75,0.00,,,0.00,Wunderground v.1.15,2013-02-11 04:49:00,
2013-02-10 20:59:00,41.4,34.1,29.95,ENE,69,0.0,-999.0,75,0.00,,,0.00,Wunderground v.1.15,2013-02-11 04:59:00,
2013-02-10 21:09:00,40.2,33.2,29.95,ENE,69,0.0,-999.0,76,0.00,,,0.00,Wunderground v.1.15,2013-02-11 05:09:00,
2013-02-10 21:19:00,40.0,33.4,29.95,ENE,69,0.0,-999.0,77,0.00,,,0.00,Wunderground v.1.15,2013-02-11 05:19:00,
2013-02-10 21:29:00,39.5,33.2,29.95,ENE,69,0.0,-999.0,78,0.00,,,0.00,Wunderground v.1.15,2013-02-11 05:29:00,
2013-02-10 21:39:00,38.6,32.3,29.95,ENE,69,0.0,-999.0,78,0.00,,,0.00,Wunderground v.1.15,2013-02-11 05:39:00,
2013-02-10 21:49:00,37.8,32.2,29.95,ENE,69,0.0,-999.0,80,0.00,,,0.00,Wunderground v.1.15,2013-02-11 05:49:00,
2013-02-10 22:00:00,37.8,32.5,29.96,ENE,69,0.0,-999.0,81,0.00,,,0.00,Wunderground v.1.15,2013-02-11 06:00:00,
2013-02-10 22:10:00,37.4,32.4,29.96,SE,129,0.0,-999.0,82,0.00,,,0.00,Wunderground v.1.15,2013-02-11 06:10:00,
2013-02-10 22:19:00,37.4,32.7,29.96,SE,129,0.0,-999.0,83,0.00,,,0.00,Wunderground v.1.15,2013-02-11 06:19:00,
2013-02-10 22:29:00,38.8,33.8,29.96,SE,129,0.0,-999.0,82,0.00,,,0.00,Wunderground v.1.15,2013-02-11 06:29:00,
2013-02-10 22:39:00,39.0,33.4,29.96,SE,132,0.0,-999.0,80,0.00,,,0.00,Wunderground v.1.15,2013-02-11 06:39:00,
2013-02-10 22:49:00,38.2,32.6,29.97,SE,140,0.0,-999.0,80,0.00,,,0.00,Wunderground v.1.15,2013-02-11 06:49:00,
2013-02-10 22:59:00,38.2,32.6,29.97,SE,141,0.0,-999.0,80,0.00,,,0.00,Wunderground v.1.15,2013-02-11 06:59:00,
2013-02-10 23:09:00,38.1,32.5,29.97,SE,141,0.0,-999.0,80,0.00,,,0.00,Wunderground v.1.15,2013-02-11 07:09:00,
2013-02-10 23:19:00,37.3,31.7,29.97,SE,141,0.0,-999.0,80,0.00,,,0.00,Wunderground v.1.15,2013-02-11 07:19:00,
2013-02-10 23:29:00,36.0,30.7,29.97,SE,141,0.0,-999.0,81,0.00,,,0.00,Wunderground v.1.15,2013-02-11 07:29:00,
2013-02-10 23:39:00,35.2,30.6,29.97,SE,141,0.0,-999.0,83,0.00,,,0.00,Wunderground v.1.15,2013-02-11 07:39:00,
2013-02-10 23:49:00,34.8,30.5,29.98,SE,141,0.0,-999.0,84,0.00,,,0.00,Wunderground v.1.15,2013-02-11 07:49:00,